sensor_id;sensor_type;location;lat;lon;timestamp;P1;durP1;ratioP1;P2;durP2;ratioP2
6053;SDS011;3055;50.886;14.814;2023-08-20T00:00:02;13.77;;;12.30;;
6053;SDS011;3055;50.886;14.814;2023-08-20T00:02:32;13.00;;;11.80;;
6053;SDS011;3055;50.886;14.814;2023-08-20T00:05:04;12.83;;;11.73;;
6053;SDS011;3055;50.886;14.814;2023-08-20T00:07:32;12.40;;;11.30;;
6053;SDS011;3055;50.886;14.814;2023-08-20T00:09:59;12.83;;;11.70;;
6053;SDS011;3055;50.886;14.814;2023-08-20T00:12:27;13.20;;;11.90;;
6053;SDS011;3055;50.886;14.814;2023-08-20T00:14:55;15.00;;;11.97;;
6053;SDS011;3055;50.886;14.814;2023-08-20T00:17:30;13.47;;;12.17;;
6053;SDS011;3055;50.886;14.814;2023-08-20T00:19:57;13.17;;;11.97;;
6053;SDS011;3055;50.886;14.814;2023-08-20T00:22:26;13.03;;;11.83;;
6053;SDS011;3055;50.886;14.814;2023-08-20T00:24:54;12.50;;;11.40;;
6053;SDS011;3055;50.886;14.814;2023-08-20T00:27:22;12.37;;;11.27;;
6053;SDS011;3055;50.886;14.814;2023-08-20T00:29:49;11.73;;;10.67;;
6053;SDS011;3055;50.886;14.814;2023-08-20T00:32:16;12.47;;;11.27;;
6053;SDS011;3055;50.886;14.814;2023-08-20T00:34:43;12.00;;;10.90;;
6053;SDS011;3055;50.886;14.814;2023-08-20T00:37:10;11.87;;;10.87;;
6053;SDS011;3055;50.886;14.814;2023-08-20T00:39:39;13.67;;;12.13;;
6053;SDS011;3055;50.886;14.814;2023-08-20T00:42:06;12.60;;;11.50;;
6053;SDS011;3055;50.886;14.814;2023-08-20T00:44:33;11.33;;;10.20;;
6053;SDS011;3055;50.886;14.814;2023-08-20T00:47:01;12.97;;;11.90;;
6053;SDS011;3055;50.886;14.814;2023-08-20T00:49:29;12.63;;;11.33;;
6053;SDS011;3055;50.886;14.814;2023-08-20T00:51:56;12.53;;;11.43;;
6053;SDS011;3055;50.886;14.814;2023-08-20T00:54:24;12.93;;;11.73;;
6053;SDS011;3055;50.886;14.814;2023-08-20T00:56:53;13.20;;;11.90;;
6053;SDS011;3055;50.886;14.814;2023-08-20T00:59:20;12.07;;;10.97;;
6053;SDS011;3055;50.886;14.814;2023-08-20T01:01:49;13.17;;;11.90;;
6053;SDS011;3055;50.886;14.814;2023-08-20T01:04:16;12.20;;;11.10;;
6053;SDS011;3055;50.886;14.814;2023-08-20T01:06:44;13.50;;;12.30;;
6053;SDS011;3055;50.886;14.814;2023-08-20T01:09:22;13.93;;;12.63;;
6053;SDS011;3055;50.886;14.814;2023-08-20T01:11:57;13.53;;;12.40;;
6053;SDS011;3055;50.886;14.814;2023-08-20T01:14:26;12.57;;;11.37;;
6053;SDS011;3055;50.886;14.814;2023-08-20T01:16:53;14.37;;;13.07;;
6053;SDS011;3055;50.886;14.814;2023-08-20T01:19:21;12.83;;;11.73;;
6053;SDS011;3055;50.886;14.814;2023-08-20T01:21:53;12.60;;;11.53;;
6053;SDS011;3055;50.886;14.814;2023-08-20T01:24:33;13.07;;;11.83;;
6053;SDS011;3055;50.886;14.814;2023-08-20T01:27:17;13.23;;;12.03;;
6053;SDS011;3055;50.886;14.814;2023-08-20T01:29:54;12.27;;;11.13;;
6053;SDS011;3055;50.886;14.814;2023-08-20T01:32:22;12.93;;;11.80;;
6053;SDS011;3055;50.886;14.814;2023-08-20T01:34:50;13.27;;;12.07;;
6053;SDS011;3055;50.886;14.814;2023-08-20T01:37:18;12.30;;;11.23;;
6053;SDS011;3055;50.886;14.814;2023-08-20T01:39:45;12.53;;;11.43;;
6053;SDS011;3055;50.886;14.814;2023-08-20T01:42:12;12.27;;;11.27;;
6053;SDS011;3055;50.886;14.814;2023-08-20T01:44:39;12.30;;;11.10;;
6053;SDS011;3055;50.886;14.814;2023-08-20T01:47:08;12.97;;;11.77;;
6053;SDS011;3055;50.886;14.814;2023-08-20T01:49:35;12.47;;;11.37;;
6053;SDS011;3055;50.886;14.814;2023-08-20T01:52:02;13.10;;;11.90;;
6053;SDS011;3055;50.886;14.814;2023-08-20T01:54:30;12.33;;;11.30;;
6053;SDS011;3055;50.886;14.814;2023-08-20T01:56:57;12.60;;;11.50;;
6053;SDS011;3055;50.886;14.814;2023-08-20T01:59:24;12.83;;;11.63;;
6053;SDS011;3055;50.886;14.814;2023-08-20T02:01:51;12.73;;;11.53;;
6053;SDS011;3055;50.886;14.814;2023-08-20T02:04:19;12.83;;;11.73;;
6053;SDS011;3055;50.886;14.814;2023-08-20T02:06:46;12.83;;;11.70;;
6053;SDS011;3055;50.886;14.814;2023-08-20T02:09:13;13.43;;;12.33;;
6053;SDS011;3055;50.886;14.814;2023-08-20T02:11:40;13.00;;;11.80;;
6053;SDS011;3055;50.886;14.814;2023-08-20T02:14:07;14.00;;;12.60;;
6053;SDS011;3055;50.886;14.814;2023-08-20T02:16:34;13.03;;;11.73;;
6053;SDS011;3055;50.886;14.814;2023-08-20T02:19:02;14.33;;;12.57;;
6053;SDS011;3055;50.886;14.814;2023-08-20T02:21:33;13.40;;;12.17;;
6053;SDS011;3055;50.886;14.814;2023-08-20T02:24:00;14.07;;;12.87;;
6053;SDS011;3055;50.886;14.814;2023-08-20T02:26:27;13.30;;;12.10;;
6053;SDS011;3055;50.886;14.814;2023-08-20T02:28:54;13.83;;;12.53;;
6053;SDS011;3055;50.886;14.814;2023-08-20T02:31:21;13.53;;;12.23;;
6053;SDS011;3055;50.886;14.814;2023-08-20T02:33:48;12.70;;;11.60;;
6053;SDS011;3055;50.886;14.814;2023-08-20T02:36:15;12.83;;;11.73;;
6053;SDS011;3055;50.886;14.814;2023-08-20T02:38:44;13.70;;;12.27;;
6053;SDS011;3055;50.886;14.814;2023-08-20T02:41:11;12.57;;;11.47;;
6053;SDS011;3055;50.886;14.814;2023-08-20T02:43:38;11.07;;;10.07;;
6053;SDS011;3055;50.886;14.814;2023-08-20T02:46:05;12.30;;;11.17;;
6053;SDS011;3055;50.886;14.814;2023-08-20T02:48:32;11.97;;;10.97;;
6053;SDS011;3055;50.886;14.814;2023-08-20T02:50:59;12.13;;;11.13;;
6053;SDS011;3055;50.886;14.814;2023-08-20T02:53:27;12.57;;;11.27;;
6053;SDS011;3055;50.886;14.814;2023-08-20T02:55:56;12.73;;;11.27;;
6053;SDS011;3055;50.886;14.814;2023-08-20T02:58:23;13.00;;;11.70;;
6053;SDS011;3055;50.886;14.814;2023-08-20T03:00:50;12.57;;;11.33;;
6053;SDS011;3055;50.886;14.814;2023-08-20T03:03:18;12.23;;;11.17;;
6053;SDS011;3055;50.886;14.814;2023-08-20T03:05:45;12.70;;;11.53;;
6053;SDS011;3055;50.886;14.814;2023-08-20T03:08:12;12.70;;;11.57;;
6053;SDS011;3055;50.886;14.814;2023-08-20T03:10:39;13.13;;;12.03;;
6053;SDS011;3055;50.886;14.814;2023-08-20T03:13:08;12.53;;;11.33;;
6053;SDS011;3055;50.886;14.814;2023-08-20T03:15:35;14.00;;;12.90;;
6053;SDS011;3055;50.886;14.814;2023-08-20T03:18:02;13.80;;;12.63;;
6053;SDS011;3055;50.886;14.814;2023-08-20T03:20:29;13.83;;;12.30;;
6053;SDS011;3055;50.886;14.814;2023-08-20T03:22:57;12.27;;;11.27;;
6053;SDS011;3055;50.886;14.814;2023-08-20T03:25:24;13.23;;;12.03;;
6053;SDS011;3055;50.886;14.814;2023-08-20T03:27:51;13.43;;;12.00;;
6053;SDS011;3055;50.886;14.814;2023-08-20T03:30:20;12.63;;;11.37;;
6053;SDS011;3055;50.886;14.814;2023-08-20T03:32:47;12.33;;;11.23;;
6053;SDS011;3055;50.886;14.814;2023-08-20T03:35:14;12.60;;;11.53;;
6053;SDS011;3055;50.886;14.814;2023-08-20T03:37:41;12.30;;;11.07;;
6053;SDS011;3055;50.886;14.814;2023-08-20T03:40:09;12.63;;;11.47;;
6053;SDS011;3055;50.886;14.814;2023-08-20T03:42:36;11.83;;;10.67;;
6053;SDS011;3055;50.886;14.814;2023-08-20T03:45:03;12.30;;;11.10;;
6053;SDS011;3055;50.886;14.814;2023-08-20T03:47:32;12.00;;;10.80;;
6053;SDS011;3055;50.886;14.814;2023-08-20T03:49:59;11.50;;;10.60;;
6053;SDS011;3055;50.886;14.814;2023-08-20T03:52:26;11.90;;;10.90;;
6053;SDS011;3055;50.886;14.814;2023-08-20T03:54:53;11.97;;;10.40;;
6053;SDS011;3055;50.886;14.814;2023-08-20T03:57:20;12.30;;;11.10;;
6053;SDS011;3055;50.886;14.814;2023-08-20T03:59:47;11.53;;;10.53;;
6053;SDS011;3055;50.886;14.814;2023-08-20T04:02:14;11.53;;;10.53;;
6053;SDS011;3055;50.886;14.814;2023-08-20T04:04:43;10.87;;;9.87;;
6053;SDS011;3055;50.886;14.814;2023-08-20T04:07:10;11.43;;;10.53;;
6053;SDS011;3055;50.886;14.814;2023-08-20T04:09:37;10.97;;;10.07;;
6053;SDS011;3055;50.886;14.814;2023-08-20T04:12:05;10.70;;;9.80;;
6053;SDS011;3055;50.886;14.814;2023-08-20T04:14:32;10.87;;;9.90;;
6053;SDS011;3055;50.886;14.814;2023-08-20T04:16:59;10.87;;;9.97;;
6053;SDS011;3055;50.886;14.814;2023-08-20T04:19:26;11.93;;;10.83;;
6053;SDS011;3055;50.886;14.814;2023-08-20T04:21:55;10.57;;;9.67;;
6053;SDS011;3055;50.886;14.814;2023-08-20T04:24:22;10.57;;;9.67;;
6053;SDS011;3055;50.886;14.814;2023-08-20T04:26:49;10.80;;;9.83;;
6053;SDS011;3055;50.886;14.814;2023-08-20T04:29:16;11.00;;;9.90;;
6053;SDS011;3055;50.886;14.814;2023-08-20T04:31:44;10.37;;;9.37;;
6053;SDS011;3055;50.886;14.814;2023-08-20T04:34:11;10.23;;;9.33;;
6053;SDS011;3055;50.886;14.814;2023-08-20T04:36:38;12.00;;;10.60;;
6053;SDS011;3055;50.886;14.814;2023-08-20T04:39:07;11.77;;;9.63;;
6053;SDS011;3055;50.886;14.814;2023-08-20T04:41:33;10.17;;;9.17;;
6053;SDS011;3055;50.886;14.814;2023-08-20T04:44:00;11.77;;;10.67;;
6053;SDS011;3055;50.886;14.814;2023-08-20T04:46:27;11.83;;;10.83;;
6053;SDS011;3055;50.886;14.814;2023-08-20T04:48:54;11.20;;;10.10;;
6053;SDS011;3055;50.886;14.814;2023-08-20T04:51:21;11.63;;;10.53;;
6053;SDS011;3055;50.886;14.814;2023-08-20T04:53:48;11.20;;;10.20;;
6053;SDS011;3055;50.886;14.814;2023-08-20T04:56:17;12.10;;;11.10;;
6053;SDS011;3055;50.886;14.814;2023-08-20T04:58:44;11.07;;;10.07;;
6053;SDS011;3055;50.886;14.814;2023-08-20T05:01:11;10.67;;;9.77;;
6053;SDS011;3055;50.886;14.814;2023-08-20T05:03:38;11.47;;;10.47;;
6053;SDS011;3055;50.886;14.814;2023-08-20T05:06:05;10.57;;;9.60;;
6053;SDS011;3055;50.886;14.814;2023-08-20T05:08:32;10.60;;;9.77;;
6053;SDS011;3055;50.886;14.814;2023-08-20T05:10:59;11.13;;;10.13;;
6053;SDS011;3055;50.886;14.814;2023-08-20T05:13:27;11.13;;;10.13;;
6053;SDS011;3055;50.886;14.814;2023-08-20T05:15:55;11.17;;;10.17;;
6053;SDS011;3055;50.886;14.814;2023-08-20T05:18:22;10.67;;;9.67;;
6053;SDS011;3055;50.886;14.814;2023-08-20T05:20:49;10.40;;;9.40;;
6053;SDS011;3055;50.886;14.814;2023-08-20T05:23:16;10.53;;;9.53;;
6053;SDS011;3055;50.886;14.814;2023-08-20T05:25:43;10.53;;;9.63;;
6053;SDS011;3055;50.886;14.814;2023-08-20T05:28:10;10.63;;;9.63;;
6053;SDS011;3055;50.886;14.814;2023-08-20T05:30:38;10.23;;;9.43;;
6053;SDS011;3055;50.886;14.814;2023-08-20T05:33:05;10.00;;;9.20;;
6053;SDS011;3055;50.886;14.814;2023-08-20T05:35:35;10.20;;;9.30;;
6053;SDS011;3055;50.886;14.814;2023-08-20T05:38:03;10.40;;;9.40;;
6053;SDS011;3055;50.886;14.814;2023-08-20T05:40:30;9.63;;;8.90;;
6053;SDS011;3055;50.886;14.814;2023-08-20T05:42:57;9.53;;;8.63;;
6053;SDS011;3055;50.886;14.814;2023-08-20T05:45:24;9.00;;;8.10;;
6053;SDS011;3055;50.886;14.814;2023-08-20T05:47:53;8.97;;;8.10;;
6053;SDS011;3055;50.886;14.814;2023-08-20T05:50:20;9.37;;;8.47;;
6053;SDS011;3055;50.886;14.814;2023-08-20T05:52:47;9.43;;;8.63;;
6053;SDS011;3055;50.886;14.814;2023-08-20T05:55:15;8.70;;;8.00;;
6053;SDS011;3055;50.886;14.814;2023-08-20T05:57:42;8.90;;;8.20;;
6053;SDS011;3055;50.886;14.814;2023-08-20T06:00:09;8.57;;;7.83;;
6053;SDS011;3055;50.886;14.814;2023-08-20T06:02:37;9.23;;;8.20;;
6053;SDS011;3055;50.886;14.814;2023-08-20T06:05:06;8.20;;;7.47;;
6053;SDS011;3055;50.886;14.814;2023-08-20T06:07:33;9.00;;;8.10;;
6053;SDS011;3055;50.886;14.814;2023-08-20T06:10:00;8.63;;;7.93;;
6053;SDS011;3055;50.886;14.814;2023-08-20T06:12:27;8.70;;;7.90;;
6053;SDS011;3055;50.886;14.814;2023-08-20T06:14:55;8.37;;;7.70;;
6053;SDS011;3055;50.886;14.814;2023-08-20T06:17:22;8.70;;;7.90;;
6053;SDS011;3055;50.886;14.814;2023-08-20T06:19:49;8.77;;;8.07;;
6053;SDS011;3055;50.886;14.814;2023-08-20T06:22:17;8.70;;;7.80;;
6053;SDS011;3055;50.886;14.814;2023-08-20T06:24:44;9.33;;;7.97;;
6053;SDS011;3055;50.886;14.814;2023-08-20T06:27:11;10.20;;;8.50;;
6053;SDS011;3055;50.886;14.814;2023-08-20T06:29:38;9.27;;;8.33;;
6053;SDS011;3055;50.886;14.814;2023-08-20T06:32:05;9.17;;;8.47;;
6053;SDS011;3055;50.886;14.814;2023-08-20T06:34:33;9.20;;;8.50;;
6053;SDS011;3055;50.886;14.814;2023-08-20T06:37:01;10.43;;;8.70;;
6053;SDS011;3055;50.886;14.814;2023-08-20T06:39:30;9.50;;;8.70;;
6053;SDS011;3055;50.886;14.814;2023-08-20T06:41:57;9.50;;;8.70;;
6053;SDS011;3055;50.886;14.814;2023-08-20T06:44:24;8.67;;;7.97;;
6053;SDS011;3055;50.886;14.814;2023-08-20T06:46:51;8.73;;;7.93;;
6053;SDS011;3055;50.886;14.814;2023-08-20T06:49:18;8.13;;;7.43;;
6053;SDS011;3055;50.886;14.814;2023-08-20T06:51:45;8.57;;;7.77;;
6053;SDS011;3055;50.886;14.814;2023-08-20T06:54:12;8.23;;;7.43;;
6053;SDS011;3055;50.886;14.814;2023-08-20T06:56:41;7.93;;;7.33;;
6053;SDS011;3055;50.886;14.814;2023-08-20T06:59:09;7.97;;;7.37;;
6053;SDS011;3055;50.886;14.814;2023-08-20T07:01:36;8.37;;;7.67;;
6053;SDS011;3055;50.886;14.814;2023-08-20T07:04:03;8.07;;;7.30;;
6053;SDS011;3055;50.886;14.814;2023-08-20T07:06:31;7.40;;;6.80;;
6053;SDS011;3055;50.886;14.814;2023-08-20T07:08:58;8.23;;;7.20;;
6053;SDS011;3055;50.886;14.814;2023-08-20T07:11:25;8.50;;;7.60;;
6053;SDS011;3055;50.886;14.814;2023-08-20T07:13:53;7.93;;;7.20;;
6053;SDS011;3055;50.886;14.814;2023-08-20T07:16:20;7.00;;;6.40;;
6053;SDS011;3055;50.886;14.814;2023-08-20T07:18:47;7.30;;;6.70;;
6053;SDS011;3055;50.886;14.814;2023-08-20T07:21:15;7.87;;;7.17;;
6053;SDS011;3055;50.886;14.814;2023-08-20T07:23:42;8.30;;;7.50;;
6053;SDS011;3055;50.886;14.814;2023-08-20T07:26:11;7.63;;;7.00;;
6053;SDS011;3055;50.886;14.814;2023-08-20T07:28:38;7.27;;;6.60;;
6053;SDS011;3055;50.886;14.814;2023-08-20T07:31:26;8.00;;;7.30;;
6053;SDS011;3055;50.886;14.814;2023-08-20T07:33:55;8.40;;;7.70;;
6053;SDS011;3055;50.886;14.814;2023-08-20T07:36:23;7.77;;;7.07;;
6053;SDS011;3055;50.886;14.814;2023-08-20T07:38:51;8.60;;;7.80;;
6053;SDS011;3055;50.886;14.814;2023-08-20T07:41:19;9.83;;;8.83;;
6053;SDS011;3055;50.886;14.814;2023-08-20T07:43:46;12.30;;;8.40;;
6053;SDS011;3055;50.886;14.814;2023-08-20T07:46:14;8.87;;;8.10;;
6053;SDS011;3055;50.886;14.814;2023-08-20T07:48:43;8.60;;;7.70;;
6053;SDS011;3055;50.886;14.814;2023-08-20T07:51:10;10.40;;;7.37;;
6053;SDS011;3055;50.886;14.814;2023-08-20T07:53:37;9.40;;;8.50;;
6053;SDS011;3055;50.886;14.814;2023-08-20T07:56:04;7.73;;;6.90;;
6053;SDS011;3055;50.886;14.814;2023-08-20T07:58:31;9.07;;;7.80;;
6053;SDS011;3055;50.886;14.814;2023-08-20T08:00:58;9.30;;;8.40;;
6053;SDS011;3055;50.886;14.814;2023-08-20T08:03:26;10.53;;;7.30;;
6053;SDS011;3055;50.886;14.814;2023-08-20T08:05:54;9.37;;;7.30;;
6053;SDS011;3055;50.886;14.814;2023-08-20T08:08:21;9.37;;;8.20;;
6053;SDS011;3055;50.886;14.814;2023-08-20T08:10:49;8.93;;;8.03;;
6053;SDS011;3055;50.886;14.814;2023-08-20T08:13:18;9.20;;;8.13;;
6053;SDS011;3055;50.886;14.814;2023-08-20T08:15:47;9.43;;;7.93;;
6053;SDS011;3055;50.886;14.814;2023-08-20T08:18:15;9.97;;;7.37;;
6053;SDS011;3055;50.886;14.814;2023-08-20T08:20:43;10.00;;;8.27;;
6053;SDS011;3055;50.886;14.814;2023-08-20T08:23:11;8.63;;;7.83;;
6053;SDS011;3055;50.886;14.814;2023-08-20T08:25:38;10.17;;;8.20;;
6053;SDS011;3055;50.886;14.814;2023-08-20T08:28:06;9.47;;;8.40;;
6053;SDS011;3055;50.886;14.814;2023-08-20T08:30:34;9.17;;;8.27;;
6053;SDS011;3055;50.886;14.814;2023-08-20T08:33:01;11.10;;;8.10;;
6053;SDS011;3055;50.886;14.814;2023-08-20T08:35:28;9.00;;;7.80;;
6053;SDS011;3055;50.886;14.814;2023-08-20T08:37:55;10.17;;;8.83;;
6053;SDS011;3055;50.886;14.814;2023-08-20T08:40:24;10.03;;;8.10;;
6053;SDS011;3055;50.886;14.814;2023-08-20T08:42:54;10.27;;;9.10;;
6053;SDS011;3055;50.886;14.814;2023-08-20T08:45:23;10.60;;;8.33;;
6053;SDS011;3055;50.886;14.814;2023-08-20T08:47:50;8.53;;;7.67;;
6053;SDS011;3055;50.886;14.814;2023-08-20T08:50:20;9.23;;;8.40;;
6053;SDS011;3055;50.886;14.814;2023-08-20T08:52:50;10.50;;;8.07;;
6053;SDS011;3055;50.886;14.814;2023-08-20T08:55:18;8.60;;;7.77;;
6053;SDS011;3055;50.886;14.814;2023-08-20T08:57:47;8.53;;;7.73;;
6053;SDS011;3055;50.886;14.814;2023-08-20T09:00:14;8.57;;;7.87;;
6053;SDS011;3055;50.886;14.814;2023-08-20T09:02:42;8.80;;;8.10;;
6053;SDS011;3055;50.886;14.814;2023-08-20T09:05:09;9.57;;;8.30;;
6053;SDS011;3055;50.886;14.814;2023-08-20T09:07:37;9.02;;;8.30;;
6053;SDS011;3055;50.886;14.814;2023-08-20T09:10:09;8.77;;;7.83;;
6053;SDS011;3055;50.886;14.814;2023-08-20T09:12:36;8.73;;;7.83;;
6053;SDS011;3055;50.886;14.814;2023-08-20T09:15:09;9.02;;;7.93;;
6053;SDS011;3055;50.886;14.814;2023-08-20T09:17:36;8.13;;;7.47;;
6053;SDS011;3055;50.886;14.814;2023-08-20T09:20:04;8.93;;;8.03;;
6053;SDS011;3055;50.886;14.814;2023-08-20T09:22:31;8.40;;;7.60;;
6053;SDS011;3055;50.886;14.814;2023-08-20T09:25:01;9.90;;;7.22;;
6053;SDS011;3055;50.886;14.814;2023-08-20T09:27:28;8.75;;;7.95;;
6053;SDS011;3055;50.886;14.814;2023-08-20T09:29:55;9.13;;;8.05;;
6053;SDS011;3055;50.886;14.814;2023-08-20T09:32:25;7.88;;;7.18;;
6053;SDS011;3055;50.886;14.814;2023-08-20T09:34:53;8.50;;;7.55;;
6053;SDS011;3055;50.886;14.814;2023-08-20T09:37:22;13.73;;;7.78;;
6053;SDS011;3055;50.886;14.814;2023-08-20T09:39:50;9.82;;;8.15;;
6053;SDS011;3055;50.886;14.814;2023-08-20T09:42:17;9.15;;;8.25;;
6053;SDS011;3055;50.886;14.814;2023-08-20T09:44:45;10.80;;;8.43;;
6053;SDS011;3055;50.886;14.814;2023-08-20T09:47:14;10.23;;;9.23;;
6053;SDS011;3055;50.886;14.814;2023-08-20T09:49:44;9.77;;;8.98;;
6053;SDS011;3055;50.886;14.814;2023-08-20T09:52:15;11.63;;;8.90;;
6053;SDS011;3055;50.886;14.814;2023-08-20T09:54:51;9.45;;;8.57;;
6053;SDS011;3055;50.886;14.814;2023-08-20T09:57:26;10.13;;;8.90;;
6053;SDS011;3055;50.886;14.814;2023-08-20T09:59:58;14.02;;;9.63;;
6053;SDS011;3055;50.886;14.814;2023-08-20T10:02:27;10.25;;;9.35;;
6053;SDS011;3055;50.886;14.814;2023-08-20T10:05:05;10.45;;;9.52;;
6053;SDS011;3055;50.886;14.814;2023-08-20T10:07:36;10.40;;;9.50;;
6053;SDS011;3055;50.886;14.814;2023-08-20T10:10:05;9.25;;;8.45;;
6053;SDS011;3055;50.886;14.814;2023-08-20T10:12:33;9.30;;;8.38;;
6053;SDS011;3055;50.886;14.814;2023-08-20T10:15:01;9.65;;;8.65;;
6053;SDS011;3055;50.886;14.814;2023-08-20T10:17:28;10.38;;;9.38;;
6053;SDS011;3055;50.886;14.814;2023-08-20T10:19:58;11.40;;;9.40;;
6053;SDS011;3055;50.886;14.814;2023-08-20T10:22:37;10.30;;;9.30;;
6053;SDS011;3055;50.886;14.814;2023-08-20T10:25:06;9.75;;;8.85;;
6053;SDS011;3055;50.886;14.814;2023-08-20T10:27:34;9.18;;;8.18;;
6053;SDS011;3055;50.886;14.814;2023-08-20T10:30:03;10.20;;;9.18;;
6053;SDS011;3055;50.886;14.814;2023-08-20T10:32:43;9.60;;;8.80;;
6053;SDS011;3055;50.886;14.814;2023-08-20T10:35:14;10.65;;;9.52;;
6053;SDS011;3055;50.886;14.814;2023-08-20T10:38:04;9.85;;;8.88;;
6053;SDS011;3055;50.886;14.814;2023-08-20T10:40:48;9.52;;;8.65;;
6053;SDS011;3055;50.886;14.814;2023-08-20T10:43:26;9.05;;;8.20;;
6053;SDS011;3055;50.886;14.814;2023-08-20T10:46:06;8.00;;;7.30;;
6053;SDS011;3055;50.886;14.814;2023-08-20T10:48:36;9.63;;;8.77;;
6053;SDS011;3055;50.886;14.814;2023-08-20T10:51:10;9.18;;;8.27;;
6053;SDS011;3055;50.886;14.814;2023-08-20T10:53:38;12.05;;;8.85;;
6053;SDS011;3055;50.886;14.814;2023-08-20T10:56:07;8.82;;;8.05;;
6053;SDS011;3055;50.886;14.814;2023-08-20T10:58:36;9.25;;;8.20;;
6053;SDS011;3055;50.886;14.814;2023-08-20T11:01:14;9.18;;;8.38;;
6053;SDS011;3055;50.886;14.814;2023-08-20T11:03:44;9.13;;;8.23;;
6053;SDS011;3055;50.886;14.814;2023-08-20T11:06:15;9.13;;;8.32;;
6053;SDS011;3055;50.886;14.814;2023-08-20T11:08:42;9.65;;;8.70;;
6053;SDS011;3055;50.886;14.814;2023-08-20T11:11:10;9.55;;;8.52;;
6053;SDS011;3055;50.886;14.814;2023-08-20T11:13:38;10.77;;;8.73;;
6053;SDS011;3055;50.886;14.814;2023-08-20T11:16:05;9.57;;;8.60;;
6053;SDS011;3055;50.886;14.814;2023-08-20T11:18:34;9.27;;;8.15;;
6053;SDS011;3055;50.886;14.814;2023-08-20T11:21:01;10.20;;;8.60;;
6053;SDS011;3055;50.886;14.814;2023-08-20T11:23:30;10.02;;;9.23;;
6053;SDS011;3055;50.886;14.814;2023-08-20T11:25:57;9.48;;;8.57;;
6053;SDS011;3055;50.886;14.814;2023-08-20T11:28:25;10.45;;;9.55;;
6053;SDS011;3055;50.886;14.814;2023-08-20T11:30:53;12.05;;;8.88;;
6053;SDS011;3055;50.886;14.814;2023-08-20T11:33:21;10.68;;;9.77;;
6053;SDS011;3055;50.886;14.814;2023-08-20T11:35:49;10.18;;;9.38;;
6053;SDS011;3055;50.886;14.814;2023-08-20T11:38:17;11.02;;;9.77;;
6053;SDS011;3055;50.886;14.814;2023-08-20T11:40:47;10.77;;;9.65;;
6053;SDS011;3055;50.886;14.814;2023-08-20T11:43:14;12.82;;;10.02;;
6053;SDS011;3055;50.886;14.814;2023-08-20T11:45:48;12.23;;;10.02;;
6053;SDS011;3055;50.886;14.814;2023-08-20T11:48:15;10.85;;;9.77;;
6053;SDS011;3055;50.886;14.814;2023-08-20T11:50:43;11.15;;;9.27;;
6053;SDS011;3055;50.886;14.814;2023-08-20T11:53:10;10.82;;;9.93;;
6053;SDS011;3055;50.886;14.814;2023-08-20T11:55:38;10.50;;;9.60;;
6053;SDS011;3055;50.886;14.814;2023-08-20T11:58:10;11.57;;;9.80;;
6053;SDS011;3055;50.886;14.814;2023-08-20T12:00:38;11.38;;;9.25;;
6053;SDS011;3055;50.886;14.814;2023-08-20T12:03:07;11.25;;;10.25;;
6053;SDS011;3055;50.886;14.814;2023-08-20T12:05:35;10.48;;;9.48;;
6053;SDS011;3055;50.886;14.814;2023-08-20T12:08:02;10.40;;;9.40;;
6053;SDS011;3055;50.886;14.814;2023-08-20T12:10:31;10.50;;;9.40;;
6053;SDS011;3055;50.886;14.814;2023-08-20T12:12:58;10.80;;;9.60;;
6053;SDS011;3055;50.886;14.814;2023-08-20T12:15:27;11.27;;;10.15;;
6053;SDS011;3055;50.886;14.814;2023-08-20T12:17:57;10.77;;;9.77;;
6053;SDS011;3055;50.886;14.814;2023-08-20T12:20:27;10.50;;;9.48;;
6053;SDS011;3055;50.886;14.814;2023-08-20T12:22:56;10.65;;;9.70;;
6053;SDS011;3055;50.886;14.814;2023-08-20T12:25:25;10.45;;;9.63;;
6053;SDS011;3055;50.886;14.814;2023-08-20T12:27:52;10.73;;;9.73;;
6053;SDS011;3055;50.886;14.814;2023-08-20T12:30:19;11.15;;;10.25;;
6053;SDS011;3055;50.886;14.814;2023-08-20T12:32:47;9.73;;;8.82;;
6053;SDS011;3055;50.886;14.814;2023-08-20T12:35:14;12.02;;;8.85;;
6053;SDS011;3055;50.886;14.814;2023-08-20T12:37:42;10.20;;;9.23;;
6053;SDS011;3055;50.886;14.814;2023-08-20T12:40:09;10.13;;;9.32;;
6053;SDS011;3055;50.886;14.814;2023-08-20T12:42:37;9.35;;;8.65;;
6053;SDS011;3055;50.886;14.814;2023-08-20T12:45:05;10.20;;;9.13;;
6053;SDS011;3055;50.886;14.814;2023-08-20T12:47:32;9.88;;;8.98;;
6053;SDS011;3055;50.886;14.814;2023-08-20T12:50:01;9.50;;;8.60;;
6053;SDS011;3055;50.886;14.814;2023-08-20T12:52:29;10.80;;;9.82;;
6053;SDS011;3055;50.886;14.814;2023-08-20T12:54:56;12.13;;;9.90;;
6053;SDS011;3055;50.886;14.814;2023-08-20T12:57:23;9.63;;;8.57;;
6053;SDS011;3055;50.886;14.814;2023-08-20T12:59:50;10.32;;;9.48;;
6053;SDS011;3055;50.886;14.814;2023-08-20T13:02:18;10.02;;;9.13;;
6053;SDS011;3055;50.886;14.814;2023-08-20T13:04:46;10.18;;;9.10;;
6053;SDS011;3055;50.886;14.814;2023-08-20T13:07:15;10.05;;;9.15;;
6053;SDS011;3055;50.886;14.814;2023-08-20T13:09:42;9.45;;;8.60;;
6053;SDS011;3055;50.886;14.814;2023-08-20T13:12:10;9.27;;;8.25;;
6053;SDS011;3055;50.886;14.814;2023-08-20T13:14:39;9.65;;;7.30;;
6053;SDS011;3055;50.886;14.814;2023-08-20T13:17:07;9.82;;;8.50;;
6053;SDS011;3055;50.886;14.814;2023-08-20T13:19:35;9.68;;;8.00;;
6053;SDS011;3055;50.886;14.814;2023-08-20T13:22:02;8.45;;;7.75;;
6053;SDS011;3055;50.886;14.814;2023-08-20T13:24:31;8.95;;;7.75;;
6053;SDS011;3055;50.886;14.814;2023-08-20T13:26:58;9.70;;;8.18;;
6053;SDS011;3055;50.886;14.814;2023-08-20T13:29:25;10.50;;;8.88;;
6053;SDS011;3055;50.886;14.814;2023-08-20T13:31:52;9.40;;;8.38;;
6053;SDS011;3055;50.886;14.814;2023-08-20T13:34:19;8.68;;;7.60;;
6053;SDS011;3055;50.886;14.814;2023-08-20T13:36:46;10.20;;;8.88;;
6053;SDS011;3055;50.886;14.814;2023-08-20T13:39:13;8.63;;;7.85;;
6053;SDS011;3055;50.886;14.814;2023-08-20T13:41:41;9.38;;;8.38;;
6053;SDS011;3055;50.886;14.814;2023-08-20T13:44:08;9.75;;;7.70;;
6053;SDS011;3055;50.886;14.814;2023-08-20T13:46:35;10.98;;;8.05;;
6053;SDS011;3055;50.886;14.814;2023-08-20T13:49:02;10.75;;;7.97;;
6053;SDS011;3055;50.886;14.814;2023-08-20T13:51:30;9.20;;;7.65;;
6053;SDS011;3055;50.886;14.814;2023-08-20T13:53:57;10.07;;;8.48;;
6053;SDS011;3055;50.886;14.814;2023-08-20T13:56:24;8.68;;;7.88;;
6053;SDS011;3055;50.886;14.814;2023-08-20T13:58:53;9.10;;;8.32;;
6053;SDS011;3055;50.886;14.814;2023-08-20T14:01:20;8.98;;;8.07;;
6053;SDS011;3055;50.886;14.814;2023-08-20T14:03:47;7.90;;;7.30;;
6053;SDS011;3055;50.886;14.814;2023-08-20T14:06:15;8.52;;;7.82;;
6053;SDS011;3055;50.886;14.814;2023-08-20T14:08:42;10.00;;;8.43;;
6053;SDS011;3055;50.886;14.814;2023-08-20T14:11:10;8.85;;;8.00;;
6053;SDS011;3055;50.886;14.814;2023-08-20T14:13:37;8.15;;;7.45;;
6053;SDS011;3055;50.886;14.814;2023-08-20T14:16:05;8.20;;;7.50;;
6053;SDS011;3055;50.886;14.814;2023-08-20T14:18:32;8.68;;;7.70;;
6053;SDS011;3055;50.886;14.814;2023-08-20T14:20:59;8.73;;;7.78;;
6053;SDS011;3055;50.886;14.814;2023-08-20T14:23:26;8.98;;;8.18;;
6053;SDS011;3055;50.886;14.814;2023-08-20T14:25:54;8.90;;;7.80;;
6053;SDS011;3055;50.886;14.814;2023-08-20T14:28:21;8.35;;;7.55;;
6053;SDS011;3055;50.886;14.814;2023-08-20T14:30:49;8.45;;;7.75;;
6053;SDS011;3055;50.886;14.814;2023-08-20T14:33:20;8.80;;;8.02;;
6053;SDS011;3055;50.886;14.814;2023-08-20T14:35:47;8.43;;;7.63;;
6053;SDS011;3055;50.886;14.814;2023-08-20T14:38:14;7.72;;;7.03;;
6053;SDS011;3055;50.886;14.814;2023-08-20T14:40:41;10.60;;;7.88;;
6053;SDS011;3055;50.886;14.814;2023-08-20T14:43:08;8.32;;;7.53;;
6053;SDS011;3055;50.886;14.814;2023-08-20T14:45:35;11.25;;;7.95;;
6053;SDS011;3055;50.886;14.814;2023-08-20T14:48:02;8.45;;;7.75;;
6053;SDS011;3055;50.886;14.814;2023-08-20T14:50:31;7.80;;;7.13;;
6053;SDS011;3055;50.886;14.814;2023-08-20T14:52:58;8.75;;;7.90;;